Time;durP1;ratioP1;P1;durP2;ratioP2;P2;SDS_P1;SDS_P2;PMS_P1;PMS_P2;Temp;Humidity;BMP_temperature;BMP_pressure;BME280_temperature;BME280_humidity;BME280_pressure;Samples;Min_cycle;Max_cycle;Signal;HPM_P1;HPM_P2
2023/05/23 00:02:29;;;;;;;6.70;6.00;;;;;;;21.64;42.21;100360.84;96714;1303;80318;-90
2023/05/23 00:11:33;;;;;;;7.10;6.40;;;;;;;21.65;42.42;100363.91;105554;1302;66963;-89
2023/05/23 00:20:20;;;;;;;8.20;5.90;;;;;;;21.65;42.36;100359.15;100155;1302;72331;-89
2023/05/23 00:48:13;;;;;;;6.90;5.80;;;;;;;21.61;42.55;100339.74;82853;1326;80128;-89
2023/05/23 01:09:52;;;;;;;6.60;5.90;;;;;;;21.60;42.66;100346.34;84948;1305;65968;-88
2023/05/23 01:29:09;;;;;;;7.40;5.70;;;;;;;21.58;43.02;100354.08;86088;1307;67802;-88
2023/05/23 01:32:10;;;;;;;7.00;5.60;;;;;;;21.58;42.66;100356.79;98733;1300;74098;-89
2023/05/23 01:59:46;;;;;;;6.70;5.70;;;;;;;21.57;42.79;100346.77;83015;1304;66165;-89
2023/05/23 02:19:50;;;;;;;7.60;5.50;;;;;;;21.53;42.85;100347.09;105711;1302;73483;-89
2023/05/23 02:47:50;;;;;;;8.30;5.80;;;;;;;21.50;42.80;100328.88;83744;1308;66856;31
2023/05/23 03:00:36;;;;;;;8.20;5.60;;;;;;;21.48;42.70;100338.40;96575;1302;67414;-89
2023/05/23 03:21:23;;;;;;;12.00;6.70;;;;;;;21.27;42.89;100342.62;105477;1300;66966;-89
2023/05/23 03:24:34;;;;;;;11.90;6.50;;;;;;;21.26;42.77;100342.73;105400;1302;75322;-89
2023/05/23 03:30:37;;;;;;;12.80;6.30;;;;;;;21.22;42.97;100347.30;105474;1301;71759;-88
2023/05/23 03:36:24;;;;;;;11.40;6.00;;;;;;;21.20;42.93;100350.62;86781;1306;67557;-89
2023/05/23 03:39:49;;;;;;;39.90;29.40;;;;;;;21.21;42.82;100354.35;84377;1308;73853;-89
2023/05/23 03:42:42;;;;;;;23.90;20.40;;;;;;;21.22;42.59;100364.42;94884;1305;81775;-89
2023/05/23 03:45:52;;;;;;;23.00;16.60;;;;;;;21.23;42.55;100368.21;105604;1300;72520;-89
2023/05/23 03:52:02;;;;;;;23.30;19.90;;;;;;;21.22;42.37;100379.84;105561;1302;67103;-89
2023/05/23 03:54:40;;;;;;;26.70;20.90;;;;;;;21.21;42.47;100380.60;105494;1296;73869;-89
2023/05/23 03:57:49;;;;;;;20.20;17.30;;;;;;;21.21;42.34;100383.89;105329;1302;81501;-88
2023/05/23 04:03:53;;;;;;;18.80;13.60;;;;;;;21.22;42.37;100390.13;84504;1305;66048;-89
2023/05/23 04:13:14;;;;;;;21.50;11.80;;;;;;;21.23;42.33;100393.60;105580;1302;83318;-89
2023/05/23 04:18:48;;;;;;;13.60;9.90;;;;;;;21.25;42.23;100396.77;105342;1302;67897;-88
2023/05/23 04:24:27;;;;;;;13.60;9.40;;;;;;;21.27;42.13;100400.71;105417;1302;72765;-89
2023/05/23 04:33:12;;;;;;;12.20;7.50;;;;;;;21.28;41.96;100399.79;105379;1302;67127;-89
2023/05/23 04:52:41;;;;;;;9.30;5.80;;;;;;;21.27;41.99;100412.23;84170;1300;67400;-89
2023/05/23 04:58:27;;;;;;;8.70;5.70;;;;;;;21.29;42.08;100415.55;99618;1304;82361;-89
2023/05/23 05:07:13;;;;;;;12.80;9.30;;;;;;;21.32;42.06;100411.64;105288;1302;67421;-89
2023/05/23 05:10:00;;;;;;;14.40;9.60;;;;;;;21.35;42.54;100409.94;101071;1303;73208;-89
2023/05/23 05:12:27;;;;;;;17.10;10.40;;;;;;;21.37;42.63;100410.41;105022;1299;84774;-90
2023/05/23 05:15:06;;;;;;;18.20;10.70;;;;;;;21.39;42.79;100413.98;104997;1301;73515;-89
2023/05/23 05:17:37;;;;;;;16.20;11.10;;;;;;;21.41;42.80;100412.50;105080;1304;67281;-89
2023/05/23 05:20:07;;;;;;;15.40;11.30;;;;;;;21.43;42.96;100409.15;105126;1299;67962;-86
2023/05/23 05:22:35;;;;;;;18.30;13.10;;;;;;;21.44;43.08;100403.11;105116;1304;77680;-90
2023/05/23 05:27:55;;;;;;;14.40;10.90;;;;;;;21.48;42.93;100405.73;105428;1301;73300;-89
2023/05/23 05:30:26;;;;;;;19.10;11.40;;;;;;;21.50;43.03;100404.06;105324;1304;67870;-89
2023/05/23 05:33:18;;;;;;;13.60;9.80;;;;;;;21.51;43.03;100400.96;105349;1305;67125;-88
2023/05/23 05:38:54;;;;;;;17.30;9.70;;;;;;;21.51;42.96;100406.33;88288;1302;80163;-88
2023/05/23 05:41:26;;;;;;;13.30;9.40;;;;;;;21.51;42.93;100404.27;105588;1300;72557;-88
2023/05/23 05:44:15;;;;;;;;;;;;;;;21.51;42.88;100403.15;105338;1296;67799;31
2023/05/23 05:49:09;;;;;;;16.00;10.00;;;;;;;21.51;43.07;100404.75;105346;1303;73779;-89
2023/05/23 05:51:35;;;;;;;12.70;9.20;;;;;;;21.53;43.22;100405.25;105521;1298;83025;-88
2023/05/23 05:54:01;;;;;;;14.50;9.40;;;;;;;21.55;43.10;100402.52;105380;1300;67611;-88
2023/05/23 05:56:31;;;;;;;13.40;9.50;;;;;;;21.56;43.25;100405.38;104968;1304;67689;-88
2023/05/23 05:59:07;;;;;;;12.10;9.30;;;;;;;21.58;43.39;100405.73;105186;1299;67612;31
2023/05/23 06:10:23;;;;;;;16.40;9.20;;;;;;;21.62;43.42;100409.70;100843;1305;67745;-88
2023/05/23 06:12:58;;;;;;;12.70;9.10;;;;;;;21.63;43.37;100409.18;105294;1304;66948;-89
2023/05/23 06:15:25;;;;;;;17.20;9.30;;;;;;;21.63;43.27;100407.34;105204;1302;73720;-88
2023/05/23 06:17:53;;;;;;;11.20;8.40;;;;;;;21.62;43.26;100402.56;105261;1304;83008;-89
2023/05/23 06:20:22;;;;;;;13.00;8.40;;;;;;;21.61;43.18;100402.30;105267;1302;72554;-89
2023/05/23 06:22:56;;;;;;;15.60;7.50;;;;;;;21.60;43.12;100402.30;105555;1296;67870;31
2023/05/23 06:25:22;;;;;;;13.90;7.80;;;;;;;21.59;43.20;100401.80;105366;1305;67393;-89
2023/05/23 06:27:48;;;;;;;10.30;7.90;;;;;;;21.58;43.09;100403.23;105643;1308;67630;-89
2023/05/23 06:30:23;;;;;;;12.80;7.70;;;;;;;21.58;43.06;100405.42;105722;1302;67008;-89
2023/05/23 06:50:09;;;;;;;20.30;8.00;;;;;;;21.56;43.15;100396.52;105551;1296;71424;-87
2023/05/23 06:56:03;;;;;;;11.20;7.00;;;;;;;21.61;43.55;100391.92;84331;1305;67365;-89
2023/05/23 06:58:37;;;;;;;14.30;7.50;;;;;;;21.64;43.51;100389.20;105447;1297;74432;31
2023/05/23 07:01:03;;;;;;;16.20;7.20;;;;;;;21.66;43.32;100383.05;105191;1304;83088;-89
2023/05/23 07:03:34;;;;;;;12.60;7.80;;;;;;;21.67;43.28;100384.99;105254;1303;72609;-88
2023/05/23 07:06:07;;;;;;;14.20;8.00;;;;;;;21.67;43.24;100380.94;105642;1303;67318;-88
2023/05/23 07:08:42;;;;;;;23.90;15.90;;;;;;;21.67;43.18;100379.66;105476;1301;67631;-88
2023/05/23 07:11:08;;;;;;;21.90;14.80;;;;;;;21.67;43.18;100376.89;105511;1302;74494;-88
2023/05/23 07:13:42;;;;;;;19.30;14.10;;;;;;;21.69;43.22;100372.70;105578;1299;67670;-85
2023/05/23 07:16:09;;;;;;;20.30;14.40;;;;;;;21.70;43.11;100368.73;105537;1302;72720;-88
2023/05/23 07:18:35;;;;;;;26.60;15.90;;;;;;;21.71;43.08;100367.35;105324;1301;67137;-88
2023/05/23 07:21:25;;;;;;;24.90;16.50;;;;;;;21.72;43.04;100363.61;105460;1301;67090;-88
2023/05/23 07:23:52;;;;;;;24.70;16.70;;;;;;;21.73;42.91;100355.30;105321;1304;75539;-87
2023/05/23 07:26:21;;;;;;;25.20;15.70;;;;;;;21.73;42.93;100356.50;105192;1302;68231;-87
2023/05/23 07:28:46;;;;;;;22.30;15.80;;;;;;;21.74;42.86;100357.35;105168;1296;72480;-88
2023/05/23 07:33:45;;;;;;;21.50;15.30;;;;;;;21.76;42.65;100355.14;105434;1303;67712;-88
2023/05/23 07:36:11;;;;;;;23.40;14.90;;;;;;;21.76;42.72;100352.17;105340;1301;68015;-87
2023/05/23 07:39:02;;;;;;;22.10;13.70;;;;;;;21.76;42.54;100351.56;105381;1304;67625;-88
2023/05/23 07:41:28;;;;;;;;;;;;;;;21.75;42.59;100353.46;105061;1305;72285;-89
2023/05/23 07:44:05;;;;;;;16.90;12.50;;;;;;;21.72;42.44;100354.39;105530;1301;67151;-89
2023/05/23 07:50:08;;;;;;;10.30;8.60;;;;;;;21.74;42.21;100355.00;105452;1299;73781;-88
2023/05/23 07:52:54;;;;;;;12.40;8.70;;;;;;;21.74;42.08;100354.73;105213;1296;84401;-88
2023/05/23 07:55:29;;;;;;;16.00;9.10;;;;;;;21.75;41.88;100358.79;105260;1297;72458;31
2023/05/23 07:57:55;;;;;;;19.30;9.10;;;;;;;21.75;41.73;100359.81;105331;1303;67761;-88
2023/05/23 08:00:22;;;;;;;13.80;7.90;;;;;;;21.76;41.56;100359.09;105303;1301;66986;-88
2023/05/23 08:02:58;;;;;;;11.10;7.00;;;;;;;21.77;41.49;100358.37;105254;1302;67373;-88
2023/05/23 08:05:35;;;;;;;9.30;7.00;;;;;;;21.80;41.54;100363.00;105290;1301;81537;-88
2023/05/23 08:08:11;;;;;;;17.20;7.50;;;;;;;21.81;41.43;100360.70;105359;1303;72491;-88
2023/05/23 08:10:59;;;;;;;16.20;8.00;;;;;;;21.84;41.59;100357.25;105403;1299;68545;-88
2023/05/23 08:13:33;;;;;;;11.60;7.50;;;;;;;21.85;41.52;100357.30;105519;1296;67252;-87
2023/05/23 08:18:42;;;;;;;14.30;8.00;;;;;;;21.87;41.45;100349.66;105479;1302;81300;-88
2023/05/23 08:21:09;;;;;;;13.60;7.30;;;;;;;21.87;41.33;100356.02;105102;1301;72335;-88
2023/05/23 08:23:38;;;;;;;16.60;7.70;;;;;;;21.87;41.23;100359.29;105229;1299;67247;-88
2023/05/23 08:26:13;;;;;;;16.00;8.30;;;;;;;21.87;41.18;100358.16;105500;1301;67307;-88
2023/05/23 08:28:57;;;;;;;13.40;7.60;;;;;;;21.87;41.17;100356.05;105300;1302;75386;-88
2023/05/23 08:31:28;;;;;;;16.40;7.40;;;;;;;21.88;41.10;100350.94;105481;1296;83009;-87
2023/05/23 08:33:54;;;;;;;14.80;7.60;;;;;;;21.89;41.01;100348.17;105188;1305;73592;-88
2023/05/23 08:36:27;;;;;;;12.00;6.90;;;;;;;21.89;40.99;100352.02;105573;1302;66985;-89
2023/05/23 08:39:42;;;;;;;12.60;6.80;;;;;;;21.89;40.78;100346.27;105325;1303;67164;-88
2023/05/23 08:42:08;;;;;;;10.60;6.00;;;;;;;21.89;40.66;100344.08;105343;1301;74469;-89
2023/05/23 08:44:35;;;;;;;11.70;6.10;;;;;;;21.89;40.85;100346.63;105404;1301;67646;-88
2023/05/23 08:47:09;;;;;;;12.40;5.90;;;;;;;21.89;40.60;100345.45;105485;1303;71720;-88
2023/05/23 08:49:36;;;;;;;14.10;6.20;;;;;;;21.90;40.53;100340.02;105318;1301;67735;-88
2023/05/23 08:52:34;;;;;;;9.30;6.00;;;;;;;21.90;40.33;100346.20;105409;1303;67157;-88
2023/05/23 08:57:42;;;;;;;11.00;5.90;;;;;;;21.91;40.32;100344.16;95672;1304;80036;-88
2023/05/23 09:00:15;;;;;;;8.60;5.50;;;;;;;21.90;40.51;100339.08;105161;1301;72179;-87
2023/05/23 09:02:44;;;;;;;9.10;5.80;;;;;;;21.91;40.36;100342.25;105204;1301;67861;-88
2023/05/23 09:05:09;;;;;;;10.60;5.70;;;;;;;21.91;40.35;100343.28;105302;1302;67585;-88
2023/05/23 09:07:44;;;;;;;9.50;5.20;;;;;;;21.92;40.32;100339.27;105061;1301;67509;-88
2023/05/23 09:10:11;;;;;;;15.70;5.50;;;;;;;21.92;40.33;100335.27;105263;1303;83217;-87
2023/05/23 09:12:40;;;;;;;11.50;5.00;;;;;;;21.92;40.26;100337.73;105309;1305;71516;-88
2023/05/23 09:15:09;;;;;;;9.30;5.20;;;;;;;21.92;40.28;100336.77;105475;1302;67666;-88
2023/05/23 09:17:38;;;;;;;12.60;5.00;;;;;;;21.94;40.26;100333.12;105337;1301;67761;-88
2023/05/23 09:20:11;;;;;;;13.70;5.00;;;;;;;21.95;40.26;100330.45;105158;1303;74548;-88
2023/05/23 09:22:37;;;;;;;8.40;5.60;;;;;;;21.96;40.20;100323.42;105339;1301;83326;-88
2023/05/23 09:25:03;;;;;;;10.20;5.00;;;;;;;21.98;40.56;100330.08;105362;1303;67691;-88
2023/05/23 09:27:30;;;;;;;13.20;5.10;;;;;;;21.99;40.50;100325.27;105221;1302;67149;-88
2023/05/23 09:30:12;;;;;;;12.90;4.80;;;;;;;21.99;40.52;100327.35;105494;1302;66832;-88
2023/05/23 09:32:38;;;;;;;8.80;4.70;;;;;;;22.00;40.56;100325.45;105379;1302;75716;-89
2023/05/23 09:35:19;;;;;;;11.10;5.10;;;;;;;22.00;40.48;100321.35;105385;1302;83093;-88
2023/05/23 09:37:45;;;;;;;10.00;4.90;;;;;;;22.01;40.70;100322.52;104892;1305;72530;-88
2023/05/23 09:40:14;;;;;;;8.00;5.00;;;;;;;22.01;40.58;100318.33;105052;1296;67313;-88
2023/05/23 09:45:21;;;;;;;8.80;4.60;;;;;;;22.02;40.59;100310.27;105455;1305;73683;-88
2023/05/23 09:48:04;;;;;;;10.20;4.90;;;;;;;22.01;40.61;100313.72;105419;1305;83389;-88
2023/05/23 09:50:37;;;;;;;8.80;5.20;;;;;;;22.02;40.51;100315.35;105296;1304;72506;-89
2023/05/23 09:53:03;;;;;;;6.90;5.50;;;;;;;22.02;40.57;100319.74;105192;1303;67712;-89
2023/05/23 09:55:29;;;;;;;9.40;5.20;;;;;;;22.03;40.56;100323.89;105492;1302;67116;-88
2023/05/23 09:57:55;;;;;;;14.00;5.50;;;;;;;22.03;40.58;100318.41;105308;1304;67619;-88
2023/05/23 10:00:22;;;;;;;6.60;5.00;;;;;;;22.03;40.67;100311.23;105512;1303;67768;-88
2023/05/23 10:03:12;;;;;;;9.10;5.60;;;;;;;22.04;40.63;100311.95;105307;1304;67852;-89
2023/05/23 10:05:45;;;;;;;12.30;5.70;;;;;;;22.03;40.69;100307.04;105314;1303;67086;-88
2023/05/23 10:10:59;;;;;;;10.50;6.20;;;;;;;22.05;41.06;100309.42;105483;1302;73773;-87
2023/05/23 10:13:25;;;;;;;10.50;5.90;;;;;;;22.06;41.07;100301.67;105506;1302;83237;-88
2023/05/23 10:15:58;;;;;;;10.70;5.40;;;;;;;22.07;41.14;100302.45;105321;1304;67036;-88
2023/05/23 10:18:35;;;;;;;10.40;5.50;;;;;;;22.09;41.07;100304.28;105463;1302;67024;-88
2023/05/23 10:23:57;;;;;;;8.60;5.40;;;;;;;22.09;41.14;100300.70;105147;1306;73509;-88
2023/05/23 10:26:23;;;;;;;9.40;5.10;;;;;;;22.09;41.20;100297.15;105214;1305;82993;-88
2023/05/23 10:28:48;;;;;;;9.40;5.30;;;;;;;22.09;41.05;100297.31;105195;1305;67783;-88
2023/05/23 10:31:14;;;;;;;7.00;5.20;;;;;;;22.10;41.04;100297.55;105479;1301;68078;-89
2023/05/23 10:33:51;;;;;;;7.40;5.30;;;;;;;22.10;41.00;100294.18;105673;1302;67149;-89
2023/05/23 10:39:48;;;;;;;7.90;4.80;;;;;;;22.09;40.76;100302.13;105318;1305;83730;-89
2023/05/23 10:45:22;;;;;;;10.50;5.50;;;;;;;22.09;40.61;100297.01;105348;1302;67580;-89
2023/05/23 10:47:49;;;;;;;8.30;5.50;;;;;;;22.10;40.62;100290.45;105108;1301;68200;-89
2023/05/23 10:50:31;;;;;;;9.40;5.30;;;;;;;22.10;40.76;100290.34;105204;1302;73794;-89
2023/05/23 10:53:01;;;;;;;9.60;5.50;;;;;;;22.10;40.59;100289.11;105401;1305;83193;-89
2023/05/23 10:55:35;;;;;;;8.90;5.70;;;;;;;22.10;40.64;100287.58;105104;1304;72335;-89
2023/05/23 10:58:21;;;;;;;10.10;5.60;;;;;;;22.11;40.49;100287.62;105301;1301;68049;-88
2023/05/23 11:00:53;;;;;;;8.70;5.70;;;;;;;22.11;40.39;100276.65;105239;1304;67547;-89
2023/05/23 11:06:49;;;;;;;6.60;5.10;;;;;;;22.11;40.27;100277.89;105433;1305;81991;-89
2023/05/23 11:09:20;;;;;;;9.90;5.50;;;;;;;22.10;40.22;100280.65;105280;1304;72200;-89
2023/05/23 11:11:53;;;;;;;12.00;7.00;;;;;;;22.09;40.17;100277.17;105363;1303;67171;-89
2023/05/23 11:23:15;;;;;;;12.50;7.10;;;;;;;22.06;40.22;100273.36;105511;1298;72432;-89
2023/05/23 11:28:26;;;;;;;10.10;8.40;;;;;;;22.08;40.05;100273.91;105442;1298;67616;-88
2023/05/23 11:33:46;;;;;;;12.10;8.30;;;;;;;22.08;40.08;100269.09;105257;1296;80591;-86
2023/05/23 11:36:12;;;;;;;11.60;8.50;;;;;;;22.08;40.07;100273.19;105278;1304;67628;-88
2023/05/23 11:38:43;;;;;;;15.70;9.00;;;;;;;22.07;39.98;100274.53;105384;1303;67643;-89
2023/05/23 11:41:09;;;;;;;11.20;7.80;;;;;;;22.06;39.96;100274.88;105564;1301;67208;-87
2023/05/23 11:46:21;;;;;;;13.40;7.50;;;;;;;22.05;39.89;100271.63;105369;1302;82032;-89
2023/05/23 11:48:49;;;;;;;10.20;7.50;;;;;;;22.05;39.86;100267.16;105313;1299;72553;-88
2023/05/23 11:51:15;;;;;;;12.40;7.40;;;;;;;22.06;39.80;100261.37;102981;1303;3401129;-89
2023/05/23 11:56:39;;;;;;;18.40;7.60;;;;;;;22.09;39.69;100265.40;84327;1317;73373;-88
2023/05/23 11:59:05;;;;;;;11.50;7.60;;;;;;;22.10;39.71;100264.00;105515;1302;83155;-88
2023/05/23 12:01:32;;;;;;;13.20;6.80;;;;;;;22.11;39.73;100259.17;105434;1302;67601;-88
2023/05/23 12:03:57;;;;;;;14.00;6.10;;;;;;;22.13;40.05;100261.93;105189;1303;68199;-88
2023/05/23 12:06:31;;;;;;;12.80;6.30;;;;;;;22.15;40.30;100255.86;105443;1302;67953;-89
2023/05/23 12:08:58;;;;;;;10.10;6.20;;;;;;;22.17;40.46;100247.34;105274;1304;75827;-88
2023/05/23 12:11:25;;;;;;;7.60;6.10;;;;;;;22.18;40.55;100244.77;105288;1304;83040;-87
2023/05/23 12:13:51;;;;;;;7.10;5.80;;;;;;;22.18;40.50;100246.97;105407;1304;72501;-88
2023/05/23 12:16:17;;;;;;;7.70;6.40;;;;;;;22.18;40.50;100243.58;105234;1302;68265;-89
2023/05/23 12:18:46;;;;;;;9.30;5.90;;;;;;;22.19;40.40;100245.73;105286;1298;67521;-88
2023/05/23 12:24:47;;;;;;;7.50;5.10;;;;;;;22.19;40.28;100241.53;105391;1305;83055;-88
2023/05/23 12:30:26;;;;;;;7.90;5.20;;;;;;;22.19;39.99;100238.60;105408;1305;67761;-89
2023/05/23 12:32:52;;;;;;;8.60;5.00;;;;;;;22.19;39.82;100239.64;105415;1302;67572;-87
2023/05/23 12:35:21;;;;;;;7.10;5.60;;;;;;;22.19;39.69;100238.96;105556;1299;67121;-88
2023/05/23 12:37:48;;;;;;;6.70;5.30;;;;;;;22.19;39.62;100232.31;105539;1301;82335;-89
2023/05/23 12:40:26;;;;;;;7.10;5.30;;;;;;;22.20;39.40;100227.53;105616;1295;71425;-87
2023/05/23 12:43:01;;;;;;;10.30;5.20;;;;;;;22.20;39.45;100225.42;105518;1302;67107;-89
2023/05/23 12:45:35;;;;;;;6.40;4.70;;;;;;;22.19;39.29;100225.64;105510;1302;68249;31
2023/05/23 12:50:50;;;;;;;9.40;5.20;;;;;;;22.20;39.17;100228.04;84683;1302;80531;-87
2023/05/23 12:53:17;;;;;;;8.20;4.90;;;;;;;22.21;39.10;100230.76;105512;1301;68549;-88
2023/05/23 12:55:52;;;;;;;11.90;4.60;;;;;;;22.21;38.91;100228.29;105380;1303;67097;-88
2023/05/23 12:58:25;;;;;;;6.50;4.60;;;;;;;22.22;38.88;100227.11;105223;1304;67691;-89
2023/05/23 13:00:51;;;;;;;10.30;5.00;;;;;;;22.22;38.71;100222.70;105150;1302;74551;-88
2023/05/23 13:03:33;;;;;;;6.40;4.40;;;;;;;22.22;38.74;100217.16;105289;1296;67206;31
2023/05/23 13:06:17;;;;;;;9.10;5.00;;;;;;;22.23;38.64;100216.85;105071;1305;73015;-88
2023/05/23 13:08:43;;;;;;;8.20;4.70;;;;;;;22.23;38.65;100215.36;105355;1305;67866;-88
2023/05/23 13:11:10;;;;;;;6.00;4.20;;;;;;;22.23;38.63;100220.85;105548;1298;67112;-87
2023/05/23 13:13:36;;;;;;;10.10;4.60;;;;;;;22.24;38.48;100217.41;105356;1298;74357;-86
2023/05/23 13:16:09;;;;;;;7.90;4.60;;;;;;;22.24;38.47;100210.11;105509;1298;67045;-87
2023/05/23 13:18:37;;;;;;;6.60;4.30;;;;;;;22.25;38.35;100206.39;105319;1299;72662;-87
2023/05/23 13:23:33;;;;;;;8.90;4.40;;;;;;;22.26;38.38;100201.81;105568;1302;67140;-88
2023/05/23 13:25:58;;;;;;;9.10;4.40;;;;;;;22.25;38.28;100203.50;105439;1302;75464;-87
2023/05/23 13:28:33;;;;;;;5.60;4.70;;;;;;;22.26;38.22;100200.78;105469;1302;67647;-87
2023/05/23 13:30:59;;;;;;;6.20;4.00;;;;;;;22.27;38.24;100204.36;105352;1301;72531;-86
2023/05/23 13:33:25;;;;;;;5.30;4.20;;;;;;;22.28;38.35;100203.63;105067;1296;67840;-85
2023/05/23 13:35:51;;;;;;;7.20;3.90;;;;;;;22.28;38.18;100204.23;105596;1302;67014;-87
2023/05/23 13:38:17;;;;;;;6.00;4.00;;;;;;;22.28;38.22;100206.55;105478;1299;68743;-86
2023/05/23 13:40:43;;;;;;;5.50;4.20;;;;;;;22.29;38.31;100204.44;105427;1302;67911;-86
2023/05/23 13:43:09;;;;;;;7.40;4.60;;;;;;;22.28;38.22;100203.27;105273;1304;68344;-87
2023/05/23 13:45:39;;;;;;;7.40;4.60;;;;;;;22.27;38.18;100202.45;105488;1301;67639;-86
2023/05/23 13:48:11;;;;;;;5.60;4.30;;;;;;;22.27;38.29;100203.69;105426;1296;67504;31
2023/05/23 13:50:37;;;;;;;5.60;5.00;;;;;;;22.27;38.40;100215.48;105509;1302;74504;-86
2023/05/23 13:53:03;;;;;;;7.30;4.70;;;;;;;22.26;38.26;100212.62;105597;1299;67730;-87
2023/05/23 13:55:29;;;;;;;10.00;4.60;;;;;;;22.27;38.29;100218.41;105561;1302;67161;-88
2023/05/23 13:57:58;;;;;;;5.20;4.50;;;;;;;22.27;38.35;100214.50;105425;1302;67846;-87
2023/05/23 14:00:23;;;;;;;11.70;5.10;;;;;;;22.27;38.47;100222.04;105407;1303;67223;-88
2023/05/23 14:05:21;;;;;;;7.80;5.00;;;;;;;22.28;38.42;100218.45;104825;1301;555102;-87
2023/05/23 14:07:47;;;;;;;5.10;4.50;;;;;;;22.28;38.53;100222.27;105380;1298;67850;-88
2023/05/23 14:10:33;;;;;;;6.20;4.70;;;;;;;22.28;38.49;100221.66;105460;1302;67554;-87
2023/05/23 14:13:03;;;;;;;5.00;4.30;;;;;;;22.28;38.58;100230.38;105502;1299;67178;-89
2023/05/23 14:15:31;;;;;;;5.10;4.20;;;;;;;22.28;38.60;100233.91;105172;1303;74441;-88
2023/05/23 14:17:57;;;;;;;7.90;3.90;;;;;;;22.27;38.66;100234.02;105606;1301;83290;-89
2023/05/23 14:20:32;;;;;;;5.50;4.40;;;;;;;22.28;38.73;100233.77;105493;1301;72480;-89
2023/05/23 14:22:57;;;;;;;6.20;4.00;;;;;;;22.27;38.72;100235.11;105552;1301;67683;-89
2023/05/23 14:25:23;;;;;;;7.30;4.00;;;;;;;22.27;38.80;100233.98;105646;1302;67743;-89
2023/05/23 14:27:49;;;;;;;5.40;3.70;;;;;;;22.27;38.82;100237.36;105713;1302;66961;-89
2023/05/23 14:30:18;;;;;;;6.40;3.80;;;;;;;22.28;38.87;100238.02;105623;1302;83110;-89
2023/05/23 14:32:45;;;;;;;5.50;3.90;;;;;;;22.28;38.82;100238.17;105732;1302;72737;-89
2023/05/23 14:35:11;;;;;;;6.20;3.60;;;;;;;22.28;38.94;100239.41;105625;1302;67547;-88
2023/05/23 14:37:36;;;;;;;10.10;4.00;;;;;;;22.28;39.05;100242.95;105510;1303;66958;-87
2023/05/23 14:40:03;;;;;;;6.50;3.80;;;;;;;22.28;39.03;100246.16;105463;1302;67655;-87
2023/05/23 14:42:29;;;;;;;4.90;3.50;;;;;;;22.29;39.06;100261.23;105579;1302;67671;-87
2023/05/23 14:44:55;;;;;;;6.20;3.60;;;;;;;22.28;39.19;100259.14;105448;1303;67207;-87
2023/05/23 14:47:22;;;;;;;3.80;3.40;;;;;;;22.27;39.07;100258.95;105402;1305;66886;-87
2023/05/23 14:49:48;;;;;;;6.30;3.80;;;;;;;22.27;39.02;100262.13;105584;1302;67095;-87
2023/05/23 14:52:14;;;;;;;6.00;3.30;;;;;;;22.26;39.13;100258.95;105342;1303;68483;-87
2023/05/23 14:54:40;;;;;;;5.70;3.40;;;;;;;22.25;39.24;100258.44;105304;1303;72750;-87
2023/05/23 14:57:08;;;;;;;4.70;3.10;;;;;;;22.25;39.12;100257.73;105135;1299;68002;-86
2023/05/23 14:59:33;;;;;;;4.40;3.20;;;;;;;22.25;39.21;100255.88;105300;1303;67719;-86
2023/05/23 15:01:59;;;;;;;4.20;3.30;;;;;;;22.24;39.22;100257.64;105598;1302;67331;-86
2023/05/23 15:04:30;;;;;;;6.40;3.60;;;;;;;22.24;39.25;100259.89;105519;1301;67187;-86
2023/05/23 15:06:56;;;;;;;3.80;3.40;;;;;;;22.24;39.38;100255.17;105348;1300;72831;-86
2023/05/23 15:09:21;;;;;;;6.90;3.00;;;;;;;22.23;39.24;100253.85;105360;1304;67901;-87
2023/05/23 15:11:48;;;;;;;6.10;3.50;;;;;;;22.23;39.40;100252.98;105372;1304;67032;-87
2023/05/23 15:14:15;;;;;;;4.50;3.20;;;;;;;22.22;39.30;100253.90;105295;1305;67966;-87
2023/05/23 15:16:43;;;;;;;4.30;3.20;;;;;;;22.22;39.36;100247.82;105054;1305;67613;-87
2023/05/23 15:19:08;;;;;;;4.90;3.20;;;;;;;22.22;39.44;100248.63;105148;1305;67688;-87
2023/05/23 15:21:34;;;;;;;6.50;3.50;;;;;;;22.22;39.40;100240.13;105012;1305;66976;-87
2023/05/23 15:24:00;;;;;;;5.00;3.50;;;;;;;22.21;39.47;100232.91;105333;1305;67082;-87
2023/05/23 15:26:26;;;;;;;4.80;3.20;;;;;;;22.21;39.51;100233.63;105214;1305;67668;-87
2023/05/23 15:28:51;;;;;;;5.70;3.70;;;;;;;22.21;39.56;100233.88;105261;1305;67608;-86
2023/05/23 15:31:17;;;;;;;6.20;3.30;;;;;;;22.21;39.62;100240.02;105261;1305;67059;-86
2023/05/23 15:33:42;;;;;;;5.40;3.50;;;;;;;22.21;39.66;100237.83;105281;1305;67821;-87
2023/05/23 15:36:08;;;;;;;5.90;3.90;;;;;;;22.21;39.71;100236.39;105328;1305;67671;-86
2023/05/23 15:41:15;;;;;;;6.80;3.60;;;;;;;22.20;39.82;100229.06;105164;1305;73992;-86
2023/05/23 15:43:41;;;;;;;3.80;3.20;;;;;;;22.19;39.72;100230.62;105101;1305;68011;-87
2023/05/23 15:46:06;;;;;;;4.00;3.50;;;;;;;22.19;39.89;100221.28;105266;1305;67691;-87
2023/05/23 15:48:32;;;;;;;7.40;3.50;;;;;;;22.20;39.85;100220.16;105272;1305;67847;-87
2023/05/23 15:50:57;;;;;;;4.40;3.30;;;;;;;22.19;39.96;100211.19;105373;1305;67474;-87
2023/05/23 15:55:57;;;;;;;5.00;3.50;;;;;;;22.19;39.85;100198.94;105378;1302;67228;-88
2023/05/23 15:58:25;;;;;;;4.00;3.60;;;;;;;22.18;40.06;100194.64;105504;1301;67106;-87
2023/05/23 16:00:54;;;;;;;6.70;3.60;;;;;;;22.18;40.03;100195.63;105395;1301;83104;-88
2023/05/23 16:03:20;;;;;;;6.10;3.40;;;;;;;22.18;40.07;100196.75;105448;1305;73805;-88
2023/05/23 16:05:46;;;;;;;5.10;3.50;;;;;;;22.17;40.02;100190.60;105361;1304;67068;-85
2023/05/23 16:08:11;;;;;;;4.20;3.50;;;;;;;22.17;39.87;100192.60;105260;1304;67087;-88
2023/05/23 16:10:37;;;;;;;4.10;3.20;;;;;;;22.17;40.00;100190.60;105665;1302;68391;-87
2023/05/23 16:13:03;;;;;;;6.10;3.60;;;;;;;22.17;39.98;100185.64;105481;1301;67668;-86
2023/05/23 16:15:34;;;;;;;4.30;3.30;;;;;;;22.17;39.91;100184.77;105576;1299;67289;-87
2023/05/23 16:18:08;;;;;;;5.00;3.20;;;;;;;22.17;39.96;100185.23;105694;1298;67808;-86
2023/05/23 16:20:43;;;;;;;3.40;3.10;;;;;;;22.17;40.08;100180.81;105725;1296;75417;31
2023/05/23 16:23:09;;;;;;;5.00;3.60;;;;;;;22.18;40.09;100182.45;105538;1305;82957;-88
2023/05/23 16:25:34;;;;;;;6.30;3.30;;;;;;;22.17;40.12;100179.59;105483;1304;67585;-87
2023/05/23 16:31:02;;;;;;;5.40;3.20;;;;;;;22.18;40.30;100176.96;105463;1302;66871;-88
2023/05/23 16:33:28;;;;;;;7.40;3.30;;;;;;;22.18;40.36;100179.22;105489;1298;74611;-88
2023/05/23 16:35:54;;;;;;;4.20;3.30;;;;;;;22.18;40.25;100185.16;105519;1302;67100;-88
2023/05/23 16:41:28;;;;;;;4.60;3.50;;;;;;;22.17;40.31;100189.16;105267;1304;67051;-91
2023/05/23 16:43:54;;;;;;;3.90;3.30;;;;;;;22.17;40.37;100197.48;105278;1304;67760;-87
2023/05/23 16:46:21;;;;;;;4.80;3.50;;;;;;;22.16;40.17;100202.60;105424;1304;67015;-87
2023/05/23 16:48:47;;;;;;;5.70;3.50;;;;;;;22.16;40.20;100203.99;105393;1304;67642;-87
2023/05/23 16:51:12;;;;;;;4.60;3.40;;;;;;;22.16;40.05;100204.91;105365;1304;67677;-87
2023/05/23 16:53:38;;;;;;;4.10;3.60;;;;;;;22.15;40.05;100205.59;105395;1304;67605;-87
2023/05/23 16:56:03;;;;;;;3.70;3.10;;;;;;;22.16;40.05;100200.11;105218;1305;67764;-87
2023/05/23 16:58:29;;;;;;;4.30;3.30;;;;;;;22.15;39.98;100203.76;105283;1305;67156;-87
2023/05/23 17:00:55;;;;;;;4.30;3.20;;;;;;;22.15;39.87;100206.87;105339;1304;73258;-87
2023/05/23 17:03:20;;;;;;;5.40;3.60;;;;;;;22.16;39.90;100210.81;105214;1304;67670;-87
2023/05/23 17:05:46;;;;;;;4.70;3.70;;;;;;;22.16;39.80;100210.15;105216;1304;67033;-87
2023/05/23 17:08:28;;;;;;;6.80;3.70;;;;;;;22.16;39.74;100212.36;104933;1305;67037;-91
2023/05/23 17:10:54;;;;;;;4.10;3.40;;;;;;;22.15;39.76;100215.68;105369;1304;83162;-87
2023/05/23 17:13:20;;;;;;;4.90;3.20;;;;;;;22.15;39.82;100220.61;105355;1304;67735;-87
2023/05/23 17:15:45;;;;;;;3.80;3.30;;;;;;;22.15;39.64;100223.13;105436;1304;67568;-87